sensor_id;sensor_type;location;lat;lon;timestamp;pressure;altitude;pressure_sealevel;temperature;humidity
61880;BME280;47817;52.798;27.544;2023-08-07T00:00:31;1005.1;;;27.6;64.9
61880;BME280;47817;52.798;27.544;2023-08-07T00:05:35;1005.3;;;27.7;64.6
61880;BME280;47817;52.798;27.544;2023-08-07T00:10:15;1005.9;;;27.7;64.5
61880;BME280;47817;52.798;27.544;2023-08-07T00:16:01;1006.5;;;27.5;66.7
61880;BME280;47817;52.798;27.544;2023-08-07T00:20:15;1006.1;;;26.5;72.3
61880;BME280;47817;52.798;27.544;2023-08-07T00:25:35;1006.1;;;25.8;75.3
61880;BME280;47817;52.798;27.544;2023-08-07T00:31:01;1006.1;;;25.6;77.4
61880;BME280;47817;52.798;27.544;2023-08-07T00:35:51;1006.1;;;25.5;78.9
61880;BME280;47817;52.798;27.544;2023-08-07T00:40:21;1006;;;25.6;80.2
61880;BME280;47817;52.798;27.544;2023-08-07T00:45:29;1005.9;;;25.8;80.9
61880;BME280;47817;52.798;27.544;2023-08-07T00:50:29;1005.8;;;25.9;80.4
61880;BME280;47817;52.798;27.544;2023-08-07T00:55:35;1005.8;;;26;80.1
61880;BME280;47817;52.798;27.544;2023-08-07T01:00:15;1005.6;;;26.1;79.8
61880;BME280;47817;52.798;27.544;2023-08-07T01:06:01;1005.5;;;26.2;79.2
61880;BME280;47817;52.798;27.544;2023-08-07T01:10:34;1005.4;;;26.3;78.5
61880;BME280;47817;52.798;27.544;2023-08-07T01:16:02;1005.5;;;26.4;77.4
61880;BME280;47817;52.798;27.544;2023-08-07T01:20:21;1005.5;;;26.5;76.7
61880;BME280;47817;52.798;27.544;2023-08-07T01:25:15;1005.4;;;26.4;76.6
61880;BME280;47817;52.798;27.544;2023-08-07T01:30:22;1005.2;;;26.3;76.7
61880;BME280;47817;52.798;27.544;2023-08-07T01:36:02;1005.2;;;26.3;77.2
61880;BME280;47817;52.798;27.544;2023-08-07T01:40:35;1005.2;;;26.3;76.8
61880;BME280;47817;52.798;27.544;2023-08-07T01:45:45;1005.1;;;26.2;76.8
61880;BME280;47817;52.798;27.544;2023-08-07T01:51:01;1005;;;26.2;76.9
61880;BME280;47817;52.798;27.544;2023-08-07T01:55:29;1005;;;26.1;77
61880;BME280;47817;52.798;27.544;2023-08-07T02:00:15;1005;;;26;77
61880;BME280;47817;52.798;27.544;2023-08-07T02:05:45;1005.1;;;25.9;77.6
61880;BME280;47817;52.798;27.544;2023-08-07T02:11:01;1005.1;;;25.8;78.6
61880;BME280;47817;52.798;27.544;2023-08-07T02:15:51;1005.1;;;25.8;79.1
61880;BME280;47817;52.798;27.544;2023-08-07T02:20:29;1005;;;25.8;79.3
61880;BME280;47817;52.798;27.544;2023-08-07T02:26:01;1004.9;;;25.8;79.4
61880;BME280;47817;52.798;27.544;2023-08-07T02:30:35;1004.8;;;25.8;78.8
61880;BME280;47817;52.798;27.544;2023-08-07T02:35:35;1004.8;;;25.7;79.4
61880;BME280;47817;52.798;27.544;2023-08-07T02:40:45;1004.7;;;25.7;79.7
61880;BME280;47817;52.798;27.544;2023-08-07T02:45:45;1004.7;;;25.6;80
61880;BME280;47817;52.798;27.544;2023-08-07T02:50:51;1004.6;;;25.6;80.3
61880;BME280;47817;52.798;27.544;2023-08-07T02:55:45;1004.5;;;25.6;80
61880;BME280;47817;52.798;27.544;2023-08-07T03:01:03;1004.4;;;25.7;79.5
61880;BME280;47817;52.798;27.544;2023-08-07T03:05:15;1004.4;;;25.7;79.1
61880;BME280;47817;52.798;27.544;2023-08-07T03:11:01;1004.3;;;25.8;78.9
61880;BME280;47817;52.798;27.544;2023-08-07T03:15:21;1004.1;;;25.8;78.4
61880;BME280;47817;52.798;27.544;2023-08-07T03:21:02;1004.1;;;25.9;78.2
61880;BME280;47817;52.798;27.544;2023-08-07T03:26:00;1004;;;25.9;78.3
61880;BME280;47817;52.798;27.544;2023-08-07T03:30:45;1003.9;;;26;78
61880;BME280;47817;52.798;27.544;2023-08-07T03:35:51;1003.8;;;26.1;77.5
61880;BME280;47817;52.798;27.544;2023-08-07T03:40:15;1003.8;;;26.2;76.8
61880;BME280;47817;52.798;27.544;2023-08-07T03:46:01;1003.6;;;26.4;75.7
61880;BME280;47817;52.798;27.544;2023-08-07T03:50:39;1003.5;;;26.5;74.7
61880;BME280;47817;52.798;27.544;2023-08-07T03:55:35;1003.3;;;26.7;73.7
61880;BME280;47817;52.798;27.544;2023-08-07T04:01:01;1003.1;;;26.8;72.5
61880;BME280;47817;52.798;27.544;2023-08-07T04:06:01;1003.2;;;27;71.1
61880;BME280;47817;52.798;27.544;2023-08-07T04:10:29;1003.2;;;27.1;70.1
61880;BME280;47817;52.798;27.544;2023-08-07T04:15:16;1003.2;;;27.3;69.5
61880;BME280;47817;52.798;27.544;2023-08-07T04:20:52;1003.1;;;27.4;68.7
61880;BME280;47817;52.798;27.544;2023-08-07T04:25:37;1003.1;;;27.5;68.3
61880;BME280;47817;52.798;27.544;2023-08-07T04:30:16;1003.1;;;27.5;68.2
61880;BME280;47817;52.798;27.544;2023-08-07T04:35:54;1003.1;;;27.4;67.8
61880;BME280;47817;52.798;27.544;2023-08-07T04:41:01;1003.1;;;27.5;67.6
61880;BME280;47817;52.798;27.544;2023-08-07T04:45:48;1003;;;27.6;67.6
61880;BME280;47817;52.798;27.544;2023-08-07T04:50:16;1003;;;27.8;66.9
61880;BME280;47817;52.798;27.544;2023-08-07T04:56:02;1003;;;27.8;66.9
61880;BME280;47817;52.798;27.544;2023-08-07T05:00:20;1003.1;;;27.7;67.1
61880;BME280;47817;52.798;27.544;2023-08-07T05:05:35;1003.1;;;27.6;67.1
61880;BME280;47817;52.798;27.544;2023-08-07T05:10:24;1003;;;27.5;67.3
61880;BME280;47817;52.798;27.544;2023-08-07T05:15:15;1003.1;;;27.3;67.6
61880;BME280;47817;52.798;27.544;2023-08-07T05:20:29;1003.5;;;27;68.6
61880;BME280;47817;52.798;27.544;2023-08-07T05:25:30;1003.7;;;26.7;70.2
61880;BME280;47817;52.798;27.544;2023-08-07T05:30:18;1003.3;;;26.4;71.2
61880;BME280;47817;52.798;27.544;2023-08-07T05:35:46;1002.7;;;26.2;71.5
61880;BME280;47817;52.798;27.544;2023-08-07T05:40:32;1002.4;;;26;72.3
61880;BME280;47817;52.798;27.544;2023-08-07T05:45:26;1002.4;;;25.9;73.1
61880;BME280;47817;52.798;27.544;2023-08-07T05:50:15;1002.7;;;25.9;73.9
61880;BME280;47817;52.798;27.544;2023-08-07T05:55:52;1002.7;;;25.9;74.7
61880;BME280;47817;52.798;27.544;2023-08-07T06:01:02;1002.7;;;25.9;75.1
61880;BME280;47817;52.798;27.544;2023-08-07T06:05:16;1002.7;;;25.8;74.6
61880;BME280;47817;52.798;27.544;2023-08-07T06:10:38;1002.6;;;25.6;74.2
61880;BME280;47817;52.798;27.544;2023-08-07T06:16:02;1002.8;;;25.6;74
61880;BME280;47817;52.798;27.544;2023-08-07T06:20:16;1003;;;25.5;74.4
61880;BME280;47817;52.798;27.544;2023-08-07T06:25:38;1003.1;;;25.3;74.9
61880;BME280;47817;52.798;27.544;2023-08-07T06:30:46;1003.1;;;25.2;75.5
61880;BME280;47817;52.798;27.544;2023-08-07T06:36:02;1003.2;;;25.2;75.6
61880;BME280;47817;52.798;27.544;2023-08-07T06:41:00;1003;;;25.2;76.4
61880;BME280;47817;52.798;27.544;2023-08-07T06:45:30;1002.7;;;25.2;77
61880;BME280;47817;52.798;27.544;2023-08-07T06:50:44;1002.8;;;25.3;77
61880;BME280;47817;52.798;27.544;2023-08-07T06:55:34;1003.4;;;25.3;77.1
61880;BME280;47817;52.798;27.544;2023-08-07T07:00:52;1003.3;;;25.3;77.5
61880;BME280;47817;52.798;27.544;2023-08-07T07:05:46;1002.4;;;25.2;78
61880;BME280;47817;52.798;27.544;2023-08-07T07:10:18;1002.8;;;25.3;77.9
61880;BME280;47817;52.798;27.544;2023-08-07T07:15:52;1003;;;25.4;77.5
61880;BME280;47817;52.798;27.544;2023-08-07T07:20:46;1002.7;;;25.9;76.4
61880;BME280;47817;52.798;27.544;2023-08-07T07:26:00;1002.3;;;27.5;72.2
61880;BME280;47817;52.798;27.544;2023-08-07T07:30:22;1002.2;;;28.9;67.3
61880;BME280;47817;52.798;27.544;2023-08-07T07:35:58;1002.1;;;29.5;64.7
61880;BME280;47817;52.798;27.544;2023-08-07T07:40:16;1002.3;;;29.3;65.3
61880;BME280;47817;52.798;27.544;2023-08-07T07:45:44;1002.4;;;29;65.5
61880;BME280;47817;52.798;27.544;2023-08-07T07:50:52;1002.5;;;28.9;65.5
61880;BME280;47817;52.798;27.544;2023-08-07T07:55:46;1002.2;;;28.6;65.6
61880;BME280;47817;52.798;27.544;2023-08-07T08:00:22;1002.2;;;28.5;65.7
61880;BME280;47817;52.798;27.544;2023-08-07T08:05:22;1002.3;;;27.9;67.4
61880;BME280;47817;52.798;27.544;2023-08-07T08:11:00;1002.3;;;27.4;68.6
61880;BME280;47817;52.798;27.544;2023-08-07T08:15:32;1002.1;;;27.2;69.6
61880;BME280;47817;52.798;27.544;2023-08-07T08:20:38;1002.3;;;27;70.2
61880;BME280;47817;52.798;27.544;2023-08-07T08:26:00;1002.8;;;26.7;71.3
61880;BME280;47817;52.798;27.544;2023-08-07T08:31:00;1002.9;;;26.4;72.3
61880;BME280;47817;52.798;27.544;2023-08-07T08:35:22;1003;;;26.1;73.1
61880;BME280;47817;52.798;27.544;2023-08-07T08:40:16;1003;;;25.9;74.5
61880;BME280;47817;52.798;27.544;2023-08-07T08:45:50;1002.7;;;25.7;76.5
61880;BME280;47817;52.798;27.544;2023-08-07T08:50:36;1002.5;;;25.8;76.4
61880;BME280;47817;52.798;27.544;2023-08-07T08:55:34;1002.2;;;25.8;76.3
61880;BME280;47817;52.798;27.544;2023-08-07T09:00:58;1002.4;;;25.9;76.2
61880;BME280;47817;52.798;27.544;2023-08-07T09:05:58;1002.9;;;25.9;75.6
61880;BME280;47817;52.798;27.544;2023-08-07T09:10:16;1003.1;;;25.8;75.6
61880;BME280;47817;52.798;27.544;2023-08-07T09:15:36;1003.2;;;25.6;76.6
61880;BME280;47817;52.798;27.544;2023-08-07T09:20:58;1003.1;;;25.5;77.4
61880;BME280;47817;52.798;27.544;2023-08-07T09:25:44;1003.1;;;25.4;77.9
61880;BME280;47817;52.798;27.544;2023-08-07T09:30:58;1003.2;;;25.4;78.1
61880;BME280;47817;52.798;27.544;2023-08-07T09:35:16;1003;;;25.4;78.4
61880;BME280;47817;52.798;27.544;2023-08-07T09:40:22;1002.7;;;25.4;78.1
61880;BME280;47817;52.798;27.544;2023-08-07T09:45:38;1002.4;;;25.4;77.8
61880;BME280;47817;52.798;27.544;2023-08-07T09:50:16;1002.1;;;25.4;78.2
61880;BME280;47817;52.798;27.544;2023-08-07T09:55:34;1002;;;25.6;77.8
61880;BME280;47817;52.798;27.544;2023-08-07T10:00:46;1002.2;;;25.6;77.8
61880;BME280;47817;52.798;27.544;2023-08-07T10:05:46;1002.2;;;25.6;77.8
61880;BME280;47817;52.798;27.544;2023-08-07T10:10:17;1002.3;;;25.5;78.1
61880;BME280;47817;52.798;27.544;2023-08-07T10:15:17;1002.7;;;25.4;78.3
61880;BME280;47817;52.798;27.544;2023-08-07T10:20:58;1002.9;;;25.2;78.9
61880;BME280;47817;52.798;27.544;2023-08-07T10:25:58;1003.2;;;24.4;87.9
61880;BME280;47817;52.798;27.544;2023-08-07T10:30:34;1003.1;;;23;96.5
61880;BME280;47817;52.798;27.544;2023-08-07T10:35:44;1003.3;;;21.9;100
61880;BME280;47817;52.798;27.544;2023-08-07T10:40:58;1003.3;;;21.3;100
61880;BME280;47817;52.798;27.544;2023-08-07T10:45:28;1003.4;;;20.7;100
61880;BME280;47817;52.798;27.544;2023-08-07T10:50:16;1003.6;;;20.4;100
61880;BME280;47817;52.798;27.544;2023-08-07T10:55:18;1003.7;;;20.3;100
61880;BME280;47817;52.798;27.544;2023-08-07T11:01:39;1003.4;;;20.3;100
61880;BME280;47817;52.798;27.544;2023-08-07T11:05:58;1003.5;;;20.2;100
61880;BME280;47817;52.798;27.544;2023-08-07T11:10:38;1003.5;;;20.1;100
61880;BME280;47817;52.798;27.544;2023-08-07T11:15:58;1003.6;;;20;100
61880;BME280;47817;52.798;27.544;2023-08-07T11:20:16;1003.7;;;19.9;100
61880;BME280;47817;52.798;27.544;2023-08-07T11:25:16;1003.8;;;19.9;100
61880;BME280;47817;52.798;27.544;2023-08-07T11:30:46;1003.8;;;20;100
61880;BME280;47817;52.798;27.544;2023-08-07T11:35:44;1003.9;;;20.1;100
61880;BME280;47817;52.798;27.544;2023-08-07T11:40:44;1003.6;;;20;100
61880;BME280;47817;52.798;27.544;2023-08-07T11:45:18;1003.4;;;19.9;100
61880;BME280;47817;52.798;27.544;2023-08-07T11:50:58;1003.4;;;19.8;100
61880;BME280;47817;52.798;27.544;2023-08-07T11:55:16;1003.5;;;19.7;100
61880;BME280;47817;52.798;27.544;2023-08-07T12:01:02;1003.6;;;19.6;100
61880;BME280;47817;52.798;27.544;2023-08-07T12:05:37;1003.6;;;19.6;100
61880;BME280;47817;52.798;27.544;2023-08-07T12:11:01;1003.5;;;19.4;100
61880;BME280;47817;52.798;27.544;2023-08-07T12:15:50;1003.7;;;19.3;100
61880;BME280;47817;52.798;27.544;2023-08-07T12:20:46;1003.8;;;19.2;100
61880;BME280;47817;52.798;27.544;2023-08-07T12:25:54;1003.7;;;18.9;100
61880;BME280;47817;52.798;27.544;2023-08-07T12:30:22;1003.8;;;18.7;100
61880;BME280;47817;52.798;27.544;2023-08-07T12:35:56;1003.9;;;18.7;100
61880;BME280;47817;52.798;27.544;2023-08-07T12:40:34;1003.8;;;18.6;100
61880;BME280;47817;52.798;27.544;2023-08-07T12:45:26;1003.9;;;18.4;100
61880;BME280;47817;52.798;27.544;2023-08-07T12:50:56;1004.1;;;18.2;100
61880;BME280;47817;52.798;27.544;2023-08-07T12:55:56;1004.1;;;17.9;100
61880;BME280;47817;52.798;27.544;2023-08-07T13:00:17;1003.9;;;17.7;100
61880;BME280;47817;52.798;27.544;2023-08-07T13:05:20;1004;;;17.5;100
61880;BME280;47817;52.798;27.544;2023-08-07T13:10:46;1003.9;;;17.4;100
61880;BME280;47817;52.798;27.544;2023-08-07T13:15:46;1004;;;17.2;100
61880;BME280;47817;52.798;27.544;2023-08-07T13:20:32;1004.2;;;17.2;100
61880;BME280;47817;52.798;27.544;2023-08-07T13:25:30;1004.3;;;17.3;100
61880;BME280;47817;52.798;27.544;2023-08-07T13:30:22;1004.2;;;17.3;100
61880;BME280;47817;52.798;27.544;2023-08-07T13:35:34;1004.5;;;17.2;100
61880;BME280;47817;52.798;27.544;2023-08-07T13:40:16;1004.8;;;17.1;100
61880;BME280;47817;52.798;27.544;2023-08-07T13:45:56;1004.8;;;17;100
61880;BME280;47817;52.798;27.544;2023-08-07T13:50:40;1004.8;;;17;100
61880;BME280;47817;52.798;27.544;2023-08-07T13:55:58;1004.7;;;16.9;100
61880;BME280;47817;52.798;27.544;2023-08-07T14:00:30;1004.9;;;16.9;100
61880;BME280;47817;52.798;27.544;2023-08-07T14:05:16;1005.1;;;17;100
61880;BME280;47817;52.798;27.544;2023-08-07T14:10:32;1005.2;;;17.1;100
61880;BME280;47817;52.798;27.544;2023-08-07T14:15:30;1005.2;;;17.1;100
61880;BME280;47817;52.798;27.544;2023-08-07T14:20:26;1005.4;;;17.1;100
61880;BME280;47817;52.798;27.544;2023-08-07T14:25:40;1005.4;;;17.2;100
61880;BME280;47817;52.798;27.544;2023-08-07T14:30:40;1005.5;;;17.4;100
61880;BME280;47817;52.798;27.544;2023-08-07T14:35:42;1005.7;;;17.5;100
61880;BME280;47817;52.798;27.544;2023-08-07T14:40:20;1005.8;;;17.5;100
61880;BME280;47817;52.798;27.544;2023-08-07T14:45:56;1005.8;;;17.3;100
61880;BME280;47817;52.798;27.544;2023-08-07T14:50:56;1005.9;;;17.3;100
61880;BME280;47817;52.798;27.544;2023-08-07T14:55:30;1006;;;17.2;100
61880;BME280;47817;52.798;27.544;2023-08-07T15:00:40;1006;;;17.2;100
61880;BME280;47817;52.798;27.544;2023-08-07T15:05:56;1006;;;17.1;100
61880;BME280;47817;52.798;27.544;2023-08-07T15:10:20;1006;;;17;100
61880;BME280;47817;52.798;27.544;2023-08-07T15:15:30;1006;;;16.9;100
61880;BME280;47817;52.798;27.544;2023-08-07T15:20:46;1005.9;;;16.7;100
61880;BME280;47817;52.798;27.544;2023-08-07T15:25:56;1006;;;16.6;100
61880;BME280;47817;52.798;27.544;2023-08-07T15:30:56;1006.2;;;16.6;100
61880;BME280;47817;52.798;27.544;2023-08-07T15:35:38;1006.2;;;16.6;100
61880;BME280;47817;52.798;27.544;2023-08-07T15:40:56;1006.1;;;16.6;100
61880;BME280;47817;52.798;27.544;2023-08-07T15:45:26;1006.2;;;16.7;100
61880;BME280;47817;52.798;27.544;2023-08-07T15:50:20;1006.4;;;16.7;100
61880;BME280;47817;52.798;27.544;2023-08-07T15:55:46;1006.5;;;16.8;100
61880;BME280;47817;52.798;27.544;2023-08-07T16:00:42;1006.6;;;16.7;100
61880;BME280;47817;52.798;27.544;2023-08-07T16:05:48;1006.9;;;16.7;100
61880;BME280;47817;52.798;27.544;2023-08-07T16:10:18;1007;;;16.7;100
61880;BME280;47817;52.798;27.544;2023-08-07T16:15:56;1007;;;16.7;100
61880;BME280;47817;52.798;27.544;2023-08-07T16:20:22;1007.3;;;16.6;100
61880;BME280;47817;52.798;27.544;2023-08-07T16:25:58;1007.4;;;16.7;100
61880;BME280;47817;52.798;27.544;2023-08-07T16:30:16;1007.5;;;16.7;100
61880;BME280;47817;52.798;27.544;2023-08-07T16:35:56;1007.5;;;16.8;100
61880;BME280;47817;52.798;27.544;2023-08-07T16:40:48;1007.6;;;16.8;100
61880;BME280;47817;52.798;27.544;2023-08-07T16:45:44;1007.6;;;16.9;100
61880;BME280;47817;52.798;27.544;2023-08-07T16:50:30;1007.8;;;16.9;100
61880;BME280;47817;52.798;27.544;2023-08-07T16:55:22;1007.8;;;17;100
61880;BME280;47817;52.798;27.544;2023-08-07T17:00:58;1007.9;;;17;100
61880;BME280;47817;52.798;27.544;2023-08-07T17:05:46;1008;;;17;100
61880;BME280;47817;52.798;27.544;2023-08-07T17:10:22;1008.1;;;17.1;100
61880;BME280;47817;52.798;27.544;2023-08-07T17:15:22;1008.2;;;17.1;100
61880;BME280;47817;52.798;27.544;2023-08-07T17:21:00;1008.3;;;17.2;100
61880;BME280;47817;52.798;27.544;2023-08-07T17:25:22;1008.4;;;17.2;100
61880;BME280;47817;52.798;27.544;2023-08-07T17:30:36;1008.5;;;17.2;100
61880;BME280;47817;52.798;27.544;2023-08-07T17:36:00;1008.6;;;17.1;100
61880;BME280;47817;52.798;27.544;2023-08-07T17:40:50;1008.7;;;17.1;100
61880;BME280;47817;52.798;27.544;2023-08-07T17:45:32;1008.8;;;17.1;100
61880;BME280;47817;52.798;27.544;2023-08-07T17:50:16;1008.9;;;17.1;100
61880;BME280;47817;52.798;27.544;2023-08-07T17:55:30;1008.9;;;17.1;100
61880;BME280;47817;52.798;27.544;2023-08-07T18:00:16;1009.1;;;17;100
61880;BME280;47817;52.798;27.544;2023-08-07T18:05:36;1009.3;;;17;100
61880;BME280;47817;52.798;27.544;2023-08-07T18:11:00;1009.4;;;17;100
61880;BME280;47817;52.798;27.544;2023-08-07T18:15:44;1009.5;;;17;100
61880;BME280;47817;52.798;27.544;2023-08-07T18:21:00;1009.6;;;17;100
61880;BME280;47817;52.798;27.544;2023-08-07T18:25:22;1009.6;;;16.9;100
61880;BME280;47817;52.798;27.544;2023-08-07T18:30:16;1009.6;;;17;100
61880;BME280;47817;52.798;27.544;2023-08-07T18:35:16;1009.7;;;17;100
61880;BME280;47817;52.798;27.544;2023-08-07T18:40:36;1009.7;;;17.1;100
61880;BME280;47817;52.798;27.544;2023-08-07T18:45:28;1009.9;;;17.1;100
61880;BME280;47817;52.798;27.544;2023-08-07T18:51:00;1009.9;;;17.2;100
61880;BME280;47817;52.798;27.544;2023-08-07T18:55:44;1010;;;17.2;100
61880;BME280;47817;52.798;27.544;2023-08-07T19:00:24;1010.1;;;17.2;100
61880;BME280;47817;52.798;27.544;2023-08-07T19:05:16;1010.1;;;17.2;100
61880;BME280;47817;52.798;27.544;2023-08-07T19:11:00;1010.1;;;17.2;100
61880;BME280;47817;52.798;27.544;2023-08-07T19:16:00;1010.1;;;17.2;100
61880;BME280;47817;52.798;27.544;2023-08-07T19:20:58;1010.1;;;17.2;100
61880;BME280;47817;52.798;27.544;2023-08-07T19:25:44;1010.3;;;17.2;100
61880;BME280;47817;52.798;27.544;2023-08-07T19:31:00;1010.3;;;17.2;100
61880;BME280;47817;52.798;27.544;2023-08-07T19:35:48;1010.5;;;17.2;100
61880;BME280;47817;52.798;27.544;2023-08-07T19:40:20;1010.5;;;17.1;100
61880;BME280;47817;52.798;27.544;2023-08-07T19:45:46;1010.5;;;17.1;100
61880;BME280;47817;52.798;27.544;2023-08-07T19:51:00;1010.6;;;17.2;100
61880;BME280;47817;52.798;27.544;2023-08-07T19:56:00;1010.5;;;17.2;100
61880;BME280;47817;52.798;27.544;2023-08-07T20:00:30;1010.6;;;17.1;100
61880;BME280;47817;52.798;27.544;2023-08-07T20:06:00;1010.6;;;17.1;100
61880;BME280;47817;52.798;27.544;2023-08-07T20:10:16;1010.6;;;17.2;100
61880;BME280;47817;52.798;27.544;2023-08-07T20:15:58;1010.7;;;17.1;100
61880;BME280;47817;52.798;27.544;2023-08-07T20:20:32;1010.7;;;17.1;100
61880;BME280;47817;52.798;27.544;2023-08-07T20:25:44;1010.7;;;17;100
61880;BME280;47817;52.798;27.544;2023-08-07T20:30:50;1010.9;;;16.9;100
61880;BME280;47817;52.798;27.544;2023-08-07T20:35:46;1010.9;;;16.8;100
61880;BME280;47817;52.798;27.544;2023-08-07T20:41:00;1010.9;;;16.8;100
61880;BME280;47817;52.798;27.544;2023-08-07T20:45:22;1010.9;;;16.8;100
61880;BME280;47817;52.798;27.544;2023-08-07T20:51:00;1011;;;16.8;100
61880;BME280;47817;52.798;27.544;2023-08-07T20:55:16;1011.1;;;16.8;100
61880;BME280;47817;52.798;27.544;2023-08-07T21:00:34;1011.1;;;16.8;100
61880;BME280;47817;52.798;27.544;2023-08-07T21:06:00;1011.1;;;16.8;100
61880;BME280;47817;52.798;27.544;2023-08-07T21:11:00;1011;;;16.8;100
61880;BME280;47817;52.798;27.544;2023-08-07T21:15:16;1010.9;;;16.8;100
61880;BME280;47817;52.798;27.544;2023-08-07T21:20:16;1010.8;;;16.8;100
61880;BME280;47817;52.798;27.544;2023-08-07T21:25:50;1010.9;;;16.7;100
61880;BME280;47817;52.798;27.544;2023-08-07T21:30:50;1011;;;16.8;100
61880;BME280;47817;52.798;27.544;2023-08-07T21:35:34;1011;;;16.8;100
61880;BME280;47817;52.798;27.544;2023-08-07T21:40:38;1011;;;16.7;100
61880;BME280;47817;52.798;27.544;2023-08-07T21:46:00;1011.1;;;16.7;100
61880;BME280;47817;52.798;27.544;2023-08-07T21:50:16;1011.1;;;16.7;100
61880;BME280;47817;52.798;27.544;2023-08-07T21:55:36;1011.2;;;16.6;100
61880;BME280;47817;52.798;27.544;2023-08-07T22:01:00;1011.3;;;16.6;100
61880;BME280;47817;52.798;27.544;2023-08-07T22:05:18;1011.5;;;16.6;100
61880;BME280;47817;52.798;27.544;2023-08-07T22:10:16;1011.6;;;16.6;100
61880;BME280;47817;52.798;27.544;2023-08-07T22:15:16;1011.7;;;16.5;100
61880;BME280;47817;52.798;27.544;2023-08-07T22:20:22;1011.8;;;16.5;100
61880;BME280;47817;52.798;27.544;2023-08-07T22:25:16;1011.8;;;16.5;100
61880;BME280;47817;52.798;27.544;2023-08-07T22:30:36;1012;;;16.6;100
61880;BME280;47817;52.798;27.544;2023-08-07T22:36:00;1012;;;16.6;100
61880;BME280;47817;52.798;27.544;2023-08-07T22:40:44;1012;;;16.6;100
61880;BME280;47817;52.798;27.544;2023-08-07T22:46:00;1012;;;16.6;100
61880;BME280;47817;52.798;27.544;2023-08-07T22:50:30;1012.1;;;16.6;100
61880;BME280;47817;52.798;27.544;2023-08-07T22:55:22;1012.2;;;16.5;100
61880;BME280;47817;52.798;27.544;2023-08-07T23:00:22;1012.4;;;16.5;100
61880;BME280;47817;52.798;27.544;2023-08-07T23:05:36;1012.4;;;16.4;100
61880;BME280;47817;52.798;27.544;2023-08-07T23:10:34;1012.5;;;16.4;100
61880;BME280;47817;52.798;27.544;2023-08-07T23:15:44;1012.4;;;16.3;100
61880;BME280;47817;52.798;27.544;2023-08-07T23:20:18;1012.5;;;16.3;100
61880;BME280;47817;52.798;27.544;2023-08-07T23:25:30;1012.5;;;16.2;100
61880;BME280;47817;52.798;27.544;2023-08-07T23:30:30;1012.6;;;16.1;100
61880;BME280;47817;52.798;27.544;2023-08-07T23:36:00;1012.7;;;16.1;100
61880;BME280;47817;52.798;27.544;2023-08-07T23:41:00;1012.8;;;16;100
61880;BME280;47817;52.798;27.544;2023-08-07T23:45:38;1012.9;;;15.9;100
61880;BME280;47817;52.798;27.544;2023-08-07T23:50:44;1013;;;15.9;100
61880;BME280;47817;52.798;27.544;2023-08-07T23:56:00;1013;;;15.8;100
